Belgrade, Montana
Current Conditions -  °F | °C
As of 8:56 PM on Wednesday 26 Nov 2014 (Local Time) from KBZN Reporting Station
Clear Clear  
Wind Chill: 28°   Ceiling: Unl
Heat Index: 33°   Visibility: 10mi
Dew Point: 29°   Wind: 6mph
Humidity: 85%   Direction: 150°SSE
Pressure: 30.09"   Gusts: NA
Location:  45.78°N, 111.18°W
Report Text: KBZN 270356Z 15005KT 10SM CLR 01/M02 A3009 RMK AO2 SLP226 T00061017 $
Loading
Personal Weather Stations






























Interactive Weather Map New forecast layout! Learn more

10-Day Weather Forecast

Advertisements
Track Severe Weather on mobile